createdAt,value
2019-06-07T00:00:25.904Z,1018.65
2019-06-07T00:10:03.102Z,1018.54
2019-06-07T00:20:02.880Z,1018.44
2019-06-07T00:30:51.486Z,1018.30
2019-06-07T00:40:31.691Z,1018.12
2019-06-07T00:50:03.693Z,1018.01
2019-06-07T01:00:03.890Z,1017.87
2019-06-07T01:10:03.781Z,1017.65
2019-06-07T01:20:03.347Z,1017.48
2019-06-07T01:30:03.523Z,1017.40
2019-06-07T01:40:03.649Z,1017.35
2019-06-07T01:50:03.704Z,1017.41
2019-06-07T02:00:03.923Z,1017.32
2019-06-07T02:10:02.948Z,1017.28
2019-06-07T02:20:02.879Z,1017.21
2019-06-07T02:30:58.174Z,1017.28
2019-06-07T02:40:03.464Z,1017.17
2019-06-07T02:50:03.490Z,1017.24
2019-06-07T03:10:03.260Z,1016.99
2019-06-07T03:20:03.070Z,1016.95
2019-06-07T03:31:00.597Z,1016.95
2019-06-07T03:40:03.328Z,1017.10
2019-06-07T03:50:02.915Z,1017.17
2019-06-07T04:00:04.266Z,1017.26
2019-06-07T04:10:02.978Z,1017.25
2019-06-07T04:20:03.956Z,1017.41
2019-06-07T04:30:09.364Z,1017.32
2019-06-07T04:40:03.642Z,1017.29
2019-06-07T04:50:03.434Z,1017.19
2019-06-07T05:00:59.914Z,1017.19
2019-06-07T05:10:03.443Z,1017.03
2019-06-07T05:20:03.568Z,1016.82
2019-06-07T05:31:05.481Z,1016.69
2019-06-07T05:40:03.301Z,1016.76
2019-06-07T05:50:04.744Z,1016.79
2019-06-07T06:00:04.167Z,1016.78
2019-06-07T06:10:03.431Z,1016.83
2019-06-07T06:20:03.531Z,1016.73
2019-06-07T06:30:04.352Z,1016.72
2019-06-07T06:40:03.230Z,1016.64
2019-06-07T06:50:04.218Z,1016.50
2019-06-07T07:00:05.060Z,1016.44
2019-06-07T07:10:03.974Z,1016.33
2019-06-07T07:20:03.602Z,1016.24
2019-06-07T07:30:37.892Z,1016.08
2019-06-07T07:41:14.370Z,1015.93
2019-06-07T07:50:03.579Z,1015.80
2019-06-07T08:01:07.567Z,1015.77
2019-06-07T08:10:05.069Z,1015.63
2019-06-07T08:20:04.007Z,1015.43
2019-06-07T08:30:54.882Z,1015.38
2019-06-07T08:40:03.026Z,1015.29
2019-06-07T08:50:08.931Z,1015.24
2019-06-07T09:00:46.809Z,1015.00
2019-06-07T09:10:15.734Z,1014.86
2019-06-07T09:20:37.140Z,1014.90
2019-06-07T09:30:19.045Z,1014.80
2019-06-07T09:40:28.005Z,1014.73
2019-06-07T09:50:12.744Z,1014.55
2019-06-07T10:00:42.890Z,1014.41
2019-06-07T10:20:07.435Z,1014.00
2019-06-07T10:30:08.048Z,1013.89
2019-06-07T10:40:04.799Z,1013.91
2019-06-07T10:50:04.208Z,1013.77
2019-06-07T11:00:07.085Z,1013.79
2019-06-07T11:10:19.566Z,1013.76
2019-06-07T11:20:04.186Z,1013.69
2019-06-07T11:30:04.359Z,1013.57
2019-06-07T11:40:03.197Z,1013.58
2019-06-07T11:50:03.596Z,1013.57
2019-06-07T12:00:03.943Z,1013.55
2019-06-07T12:10:03.996Z,1013.41
2019-06-07T12:20:07.639Z,1013.15
2019-06-07T12:30:27.200Z,1013.02
2019-06-07T12:40:03.083Z,1012.83
2019-06-07T12:50:03.045Z,1012.76
2019-06-07T13:00:04.337Z,1012.68
2019-06-07T13:10:03.158Z,1012.51
2019-06-07T13:20:03.211Z,1012.50
2019-06-07T13:30:11.428Z,1012.41
2019-06-07T13:40:02.947Z,1012.36
2019-06-07T13:50:04.284Z,1012.26
2019-06-07T14:00:12.065Z,1012.20
2019-06-07T14:10:03.418Z,1011.97
2019-06-07T14:20:04.106Z,1011.89
2019-06-07T14:30:03.365Z,1011.73
2019-06-07T14:40:03.561Z,1011.71
2019-06-07T14:50:10.832Z,1011.63
2019-06-07T15:00:12.702Z,1011.60
2019-06-07T15:10:03.471Z,1011.64
2019-06-07T15:20:03.188Z,1011.58
2019-06-07T15:30:12.090Z,1011.42
2019-06-07T15:40:03.876Z,1011.24
2019-06-07T15:50:02.927Z,1011.21
2019-06-07T16:00:04.583Z,1011.10
2019-06-07T16:10:03.284Z,1011.18
2019-06-07T16:20:02.829Z,1011.15
2019-06-07T16:30:10.354Z,1011.02
2019-06-07T16:40:03.595Z,1011.15
2019-06-07T16:50:03.097Z,1011.09
2019-06-07T17:00:04.464Z,1010.98
2019-06-07T17:10:03.509Z,1011.09
2019-06-07T17:20:03.865Z,1011.14
2019-06-07T17:30:04.642Z,1011.14
2019-06-07T17:40:03.730Z,1011.21
2019-06-07T17:50:04.565Z,1011.29
2019-06-07T18:00:29.596Z,1011.44
2019-06-07T18:10:03.101Z,1011.59
2019-06-07T18:20:03.545Z,1011.59
2019-06-07T18:30:12.597Z,1011.74
2019-06-07T18:40:03.068Z,1011.76
2019-06-07T18:50:03.603Z,1011.89
2019-06-07T19:00:03.839Z,1012.05
2019-06-07T19:10:03.859Z,1012.25
2019-06-07T19:20:02.969Z,1012.22
2019-06-07T19:30:04.501Z,1012.49
2019-06-07T19:40:03.718Z,1012.69
2019-06-07T19:50:03.950Z,1012.92
2019-06-07T20:00:14.929Z,1013.39
2019-06-07T20:10:05.147Z,1013.76
2019-06-07T20:20:04.974Z,1014.07
2019-06-07T20:30:04.945Z,1014.28
2019-06-07T20:40:25.149Z,1014.55
2019-06-07T20:50:04.797Z,1014.81
2019-06-07T21:00:22.596Z,1015.05
2019-06-07T21:10:06.187Z,1015.47
2019-06-07T21:20:10.271Z,1016.35
2019-06-07T21:30:05.716Z,1017.21
2019-06-07T21:40:06.497Z,1018.18
2019-06-07T21:50:08.434Z,1018.63
2019-06-07T22:00:07.086Z,1019.35
2019-06-07T22:10:05.915Z,1019.97
2019-06-07T22:20:04.649Z,1020.64
2019-06-07T22:30:04.265Z,1020.95
2019-06-07T22:40:03.472Z,1021.14
2019-06-07T22:50:03.215Z,1021.31
2019-06-07T23:00:14.596Z,1021.53
2019-06-07T23:10:03.127Z,1021.69
2019-06-07T23:20:03.732Z,1021.46
2019-06-07T23:30:12.314Z,1021.59
2019-06-07T23:40:03.904Z,1021.74
2019-06-07T23:50:03.706Z,1021.63
